createdAt,value
2024-01-31T00:01:48.140Z,-3.06
2024-01-31T00:04:52.637Z,-3.00
2024-01-31T00:07:57.214Z,-3.20
2024-01-31T00:11:01.297Z,-3.30
2024-01-31T00:14:08.800Z,-3.23
2024-01-31T00:17:13.197Z,-3.26
2024-01-31T00:20:17.382Z,-3.39
2024-01-31T00:23:22.110Z,-3.31
2024-01-31T00:26:25.740Z,-3.54
2024-01-31T00:29:31.249Z,-3.42
2024-01-31T00:32:35.036Z,-3.31
2024-01-31T00:35:39.696Z,-3.26
2024-01-31T00:38:43.447Z,-3.25
2024-01-31T00:41:48.150Z,-3.35
2024-01-31T00:44:53.178Z,-3.47
2024-01-31T00:47:57.238Z,-3.36
2024-01-31T00:51:00.980Z,-3.34
2024-01-31T00:54:06.018Z,-3.24
2024-01-31T00:57:09.868Z,-3.35
2024-01-31T01:00:16.176Z,-3.27
2024-01-31T01:03:21.062Z,-3.33
2024-01-31T01:06:25.152Z,-3.42
2024-01-31T01:09:28.776Z,-3.53
2024-01-31T01:12:32.819Z,-3.78
2024-01-31T01:15:38.179Z,-3.48
2024-01-31T01:18:42.415Z,-3.44
2024-01-31T01:21:46.173Z,-3.46
2024-01-31T01:24:50.508Z,-3.52
2024-01-31T01:27:54.328Z,-3.41
2024-01-31T01:31:00.153Z,-3.46
2024-01-31T01:34:03.994Z,-3.43
2024-01-31T01:37:08.102Z,-3.60
2024-01-31T01:40:12.436Z,-3.46
2024-01-31T01:43:19.035Z,-3.42
2024-01-31T01:46:25.612Z,-3.28
2024-01-31T01:49:30.728Z,-3.32
2024-01-31T01:52:35.860Z,-3.48
2024-01-31T01:55:41.287Z,-3.54
2024-01-31T01:58:45.605Z,-3.62
2024-01-31T02:01:51.919Z,-3.56
2024-01-31T02:04:56.125Z,-3.75
2024-01-31T02:08:01.172Z,-3.84
2024-01-31T02:11:05.287Z,-4.04
2024-01-31T02:14:09.343Z,-4.02
2024-01-31T02:17:14.590Z,-4.08
2024-01-31T02:20:18.813Z,-3.91
2024-01-31T02:23:24.344Z,-3.88
2024-01-31T02:26:28.929Z,-3.89
2024-01-31T02:29:32.616Z,-3.91
2024-01-31T02:32:37.023Z,-3.95
2024-01-31T02:35:41.004Z,-4.12
2024-01-31T02:38:47.110Z,-3.98
2024-01-31T02:41:51.040Z,-4.00
2024-01-31T02:44:55.336Z,-3.82
2024-01-31T02:47:59.203Z,-3.85
2024-01-31T02:51:03.183Z,-3.89
2024-01-31T02:54:08.518Z,-4.24
2024-01-31T02:57:12.971Z,-4.27
2024-01-31T03:00:17.879Z,-4.27
2024-01-31T03:03:22.734Z,-4.11
2024-01-31T03:06:26.748Z,-4.17
2024-01-31T03:09:32.491Z,-3.97
2024-01-31T03:12:36.292Z,-4.09
2024-01-31T03:15:40.340Z,-4.03
2024-01-31T03:18:44.049Z,-4.16
2024-01-31T03:21:48.045Z,-4.26
2024-01-31T03:24:53.218Z,-4.17
2024-01-31T03:27:57.238Z,-4.14
2024-01-31T03:31:00.979Z,-4.25
2024-01-31T03:34:06.258Z,-4.35
2024-01-31T03:37:10.167Z,-4.39
2024-01-31T03:40:15.679Z,-4.38
2024-01-31T03:43:19.398Z,-4.56
2024-01-31T03:46:25.841Z,-5.02
2024-01-31T03:49:29.742Z,-4.76
2024-01-31T03:52:36.928Z,-4.63
2024-01-31T03:55:42.702Z,-4.83
2024-01-31T03:58:46.944Z,-4.60
2024-01-31T04:01:52.075Z,-4.42
2024-01-31T04:04:56.239Z,-4.36
2024-01-31T04:08:00.037Z,-4.24
2024-01-31T04:11:06.014Z,-4.19
2024-01-31T04:14:09.882Z,-4.17
2024-01-31T04:17:14.080Z,-4.44
2024-01-31T04:20:18.197Z,-4.51
2024-01-31T04:23:22.403Z,-4.32
2024-01-31T04:26:27.929Z,-4.32
2024-01-31T04:29:32.164Z,-4.29
2024-01-31T04:32:36.411Z,-4.32
2024-01-31T04:35:40.716Z,-4.39
2024-01-31T04:38:44.491Z,-4.53
2024-01-31T04:41:50.194Z,-4.75
2024-01-31T04:44:53.924Z,-4.62
2024-01-31T04:47:58.312Z,-4.51
2024-01-31T04:51:04.675Z,-4.53
2024-01-31T04:54:08.946Z,-4.47
2024-01-31T04:57:14.297Z,-4.90
2024-01-31T05:00:19.437Z,-4.64
2024-01-31T05:03:23.543Z,-4.47
2024-01-31T05:06:27.868Z,-4.33
2024-01-31T05:09:31.883Z,-4.50
2024-01-31T05:12:37.462Z,-4.43
2024-01-31T05:15:41.441Z,-4.41
2024-01-31T05:18:45.895Z,-4.62
2024-01-31T05:21:51.601Z,-4.55
2024-01-31T05:24:55.850Z,-4.61
2024-01-31T05:28:01.432Z,-4.72
2024-01-31T05:31:06.423Z,-4.80
2024-01-31T05:34:10.650Z,-4.87
2024-01-31T05:37:14.840Z,-4.67
2024-01-31T05:40:19.904Z,-4.68
2024-01-31T05:43:25.613Z,-4.69
2024-01-31T05:46:29.373Z,-4.90
2024-01-31T05:49:34.091Z,-4.92
2024-01-31T05:52:38.023Z,-5.06
2024-01-31T05:55:42.794Z,-4.95
2024-01-31T05:58:48.267Z,-5.03
2024-01-31T06:01:52.796Z,-4.97
2024-01-31T06:04:56.691Z,-4.84
2024-01-31T06:08:02.278Z,-4.73
2024-01-31T06:11:09.957Z,-4.69
2024-01-31T06:14:16.263Z,-4.68
2024-01-31T06:17:20.336Z,-4.64
2024-01-31T06:20:24.390Z,-4.89
2024-01-31T06:23:28.775Z,-5.00
2024-01-31T06:26:33.844Z,-4.94
2024-01-31T06:29:41.177Z,-4.89
2024-01-31T06:32:49.100Z,-4.70
2024-01-31T06:35:53.155Z,-4.49
2024-01-31T06:38:59.862Z,-4.64
2024-01-31T06:42:03.669Z,-4.37
2024-01-31T06:45:11.217Z,-4.18
2024-01-31T06:48:16.626Z,-4.06
2024-01-31T06:51:20.843Z,-4.19
2024-01-31T06:54:24.668Z,-4.11
2024-01-31T06:57:29.027Z,-4.07
2024-01-31T07:00:34.260Z,-3.85
2024-01-31T07:03:38.448Z,-3.75
2024-01-31T07:06:42.301Z,-3.63
2024-01-31T07:09:46.566Z,-3.85
2024-01-31T07:12:51.814Z,-3.66
2024-01-31T07:15:57.319Z,-3.73
2024-01-31T07:19:01.336Z,-4.09
2024-01-31T07:22:05.977Z,-3.66
2024-01-31T07:25:12.339Z,-3.39
2024-01-31T07:28:17.216Z,-3.36
2024-01-31T07:31:22.655Z,-3.26
2024-01-31T07:34:27.062Z,-3.30
2024-01-31T07:37:31.379Z,-3.20
2024-01-31T07:40:35.997Z,-3.13
2024-01-31T07:43:43.539Z,-3.29
2024-01-31T07:46:49.951Z,-3.29
2024-01-31T07:49:53.719Z,-2.90
2024-01-31T07:52:58.201Z,-2.97
2024-01-31T07:56:05.461Z,-2.81
2024-01-31T07:59:10.395Z,-3.09
2024-01-31T08:02:15.713Z,-2.54
2024-01-31T08:05:19.963Z,-2.31
2024-01-31T08:08:23.998Z,-2.00
2024-01-31T08:11:28.683Z,-1.75
2024-01-31T08:14:32.560Z,-1.52
2024-01-31T08:17:38.485Z,-1.31
2024-01-31T08:20:42.312Z,-1.13
2024-01-31T08:23:46.660Z,-0.95
2024-01-31T08:26:52.233Z,-0.81
2024-01-31T08:29:56.760Z,-0.62
2024-01-31T08:33:02.858Z,-0.42
2024-01-31T08:36:07.446Z,-0.32
2024-01-31T08:39:11.413Z,-0.20
2024-01-31T08:42:15.837Z,-0.14
2024-01-31T08:45:19.690Z,0.01
2024-01-31T08:48:25.780Z,0.14
2024-01-31T08:51:31.862Z,0.15
2024-01-31T08:54:36.424Z,0.28
2024-01-31T08:57:40.551Z,0.45
2024-01-31T09:00:44.804Z,0.34
2024-01-31T09:03:51.765Z,0.56
2024-01-31T09:06:56.383Z,0.51
2024-01-31T09:10:01.012Z,0.65
2024-01-31T09:13:05.798Z,0.81
2024-01-31T09:16:09.889Z,0.91
2024-01-31T09:19:16.092Z,1.02
2024-01-31T09:22:19.967Z,1.15
2024-01-31T09:26:05.292Z,1.21
2024-01-31T09:29:48.974Z,1.38
2024-01-31T09:32:53.861Z,1.31
2024-01-31T09:36:12.288Z,1.46
2024-01-31T09:39:16.617Z,1.59
2024-01-31T09:42:20.466Z,1.73
2024-01-31T09:45:26.486Z,1.78
2024-01-31T09:48:32.056Z,1.92
2024-01-31T09:51:38.891Z,2.00
2024-01-31T09:54:45.275Z,2.12
2024-01-31T09:57:49.558Z,2.17
2024-01-31T10:00:56.846Z,2.26
2024-01-31T10:04:04.530Z,2.31
2024-01-31T10:07:11.263Z,2.38
2024-01-31T10:10:15.508Z,2.49
2024-01-31T10:13:19.460Z,2.62
2024-01-31T10:16:23.741Z,2.69
2024-01-31T10:19:27.686Z,2.80
2024-01-31T10:22:33.992Z,2.90
2024-01-31T10:25:38.296Z,3.03
2024-01-31T10:28:45.773Z,3.17
2024-01-31T10:31:55.051Z,3.23
2024-01-31T10:35:21.515Z,3.36
2024-01-31T10:38:27.408Z,3.48
2024-01-31T10:41:34.261Z,3.58
2024-01-31T10:44:39.927Z,3.69
2024-01-31T10:47:45.934Z,3.75
2024-01-31T10:50:52.367Z,3.83
2024-01-31T10:53:59.153Z,3.91
2024-01-31T10:57:06.094Z,3.96
2024-01-31T11:00:13.006Z,4.01
2024-01-31T11:03:18.128Z,4.14
2024-01-31T11:06:26.850Z,4.20
2024-01-31T11:09:32.098Z,4.28
2024-01-31T11:12:37.988Z,4.33
2024-01-31T11:15:42.807Z,4.37
2024-01-31T11:18:52.890Z,4.44
2024-01-31T11:21:56.924Z,4.53
2024-01-31T11:25:05.330Z,4.63
2024-01-31T11:28:11.113Z,4.66
2024-01-31T11:31:15.673Z,4.72
2024-01-31T11:34:19.875Z,4.79
2024-01-31T11:37:24.073Z,4.85
2024-01-31T11:40:29.795Z,4.91
2024-01-31T11:43:36.433Z,4.96
2024-01-31T11:46:41.075Z,5.03
2024-01-31T11:49:46.352Z,5.08
2024-01-31T11:52:55.744Z,5.12
2024-01-31T11:56:01.866Z,5.19
2024-01-31T11:59:07.042Z,5.25
2024-01-31T12:02:12.202Z,5.32
2024-01-31T12:05:16.510Z,5.36
2024-01-31T12:08:24.904Z,5.42
2024-01-31T12:11:30.438Z,5.49
2024-01-31T12:14:34.789Z,5.55
2024-01-31T12:17:41.660Z,5.64
2024-01-31T12:20:45.933Z,5.72
2024-01-31T12:23:50.095Z,5.75
2024-01-31T12:26:56.277Z,5.82
2024-01-31T12:30:00.405Z,5.87
2024-01-31T12:33:05.233Z,6.00
2024-01-31T12:36:12.301Z,6.08
2024-01-31T12:39:20.501Z,6.18
2024-01-31T12:42:26.093Z,6.17
2024-01-31T12:45:30.944Z,6.22
2024-01-31T12:48:35.986Z,6.27
2024-01-31T12:51:40.817Z,6.28
2024-01-31T12:54:44.735Z,6.29
2024-01-31T12:57:50.416Z,6.26
2024-01-31T13:00:54.322Z,6.23
2024-01-31T13:03:58.597Z,6.19
2024-01-31T13:07:03.669Z,6.22
2024-01-31T13:10:09.526Z,6.28
2024-01-31T13:13:14.700Z,6.25
2024-01-31T13:16:18.738Z,6.17
2024-01-31T13:19:23.709Z,6.13
2024-01-31T13:22:28.081Z,6.13
2024-01-31T13:25:31.923Z,6.18
2024-01-31T13:28:38.934Z,6.11
2024-01-31T13:31:42.723Z,6.10
2024-01-31T13:34:46.733Z,6.10
2024-01-31T13:37:50.662Z,6.06
2024-01-31T13:40:55.339Z,6.02
2024-01-31T13:44:00.601Z,5.92
2024-01-31T13:47:05.713Z,5.88
2024-01-31T13:50:10.067Z,5.86
2024-01-31T13:53:13.930Z,5.79
2024-01-31T13:56:17.636Z,5.78
2024-01-31T13:59:23.151Z,5.73
2024-01-31T14:02:26.943Z,5.78
2024-01-31T14:05:31.186Z,5.67
2024-01-31T14:08:35.002Z,5.68
2024-01-31T14:11:39.452Z,5.63
2024-01-31T14:14:45.790Z,5.64
2024-01-31T14:17:51.442Z,5.61
2024-01-31T14:20:55.393Z,5.64
2024-01-31T14:24:05.206Z,5.57
2024-01-31T14:27:16.165Z,5.54
2024-01-31T14:30:21.673Z,5.53
2024-01-31T14:33:25.463Z,5.50
2024-01-31T14:36:29.962Z,5.52
2024-01-31T14:39:33.681Z,5.48
2024-01-31T14:42:38.367Z,5.33
2024-01-31T14:45:46.205Z,5.33
2024-01-31T14:48:51.206Z,5.31
2024-01-31T14:51:56.436Z,5.27
2024-01-31T14:55:00.834Z,5.24
2024-01-31T14:58:05.452Z,5.24
2024-01-31T15:01:11.440Z,5.27
2024-01-31T15:04:15.325Z,5.19
2024-01-31T15:07:19.449Z,5.20
2024-01-31T15:10:23.097Z,5.10
2024-01-31T15:13:27.037Z,5.09
2024-01-31T15:16:32.488Z,5.07
2024-01-31T15:19:36.959Z,5.03
2024-01-31T15:22:40.866Z,4.99
2024-01-31T15:25:45.015Z,4.97
2024-01-31T15:28:48.989Z,4.91
2024-01-31T15:31:55.831Z,4.74
2024-01-31T15:34:59.901Z,4.70
2024-01-31T15:38:04.366Z,4.62
2024-01-31T15:41:09.862Z,4.53
2024-01-31T15:44:15.381Z,4.37
2024-01-31T15:47:20.721Z,4.28
2024-01-31T15:50:24.866Z,4.15
2024-01-31T15:53:28.743Z,3.91
2024-01-31T15:56:32.978Z,3.72
2024-01-31T15:59:36.704Z,3.53
2024-01-31T16:02:42.079Z,3.42
2024-01-31T16:05:46.012Z,3.38
2024-01-31T16:08:50.223Z,3.09
2024-01-31T16:11:54.115Z,2.96
2024-01-31T16:14:58.734Z,2.79
2024-01-31T16:18:09.532Z,2.78
2024-01-31T16:21:14.192Z,2.58
2024-01-31T16:24:18.478Z,2.48
2024-01-31T16:27:22.628Z,2.23
2024-01-31T16:30:26.400Z,2.17
2024-01-31T16:33:34.582Z,1.81
2024-01-31T16:36:38.372Z,1.90
2024-01-31T16:39:45.413Z,1.69
2024-01-31T16:42:49.475Z,1.71
2024-01-31T16:45:53.452Z,1.77
2024-01-31T16:49:00.107Z,1.61
2024-01-31T16:52:04.318Z,1.65
2024-01-31T16:55:08.411Z,1.68
2024-01-31T16:58:12.440Z,1.68
2024-01-31T17:01:17.059Z,1.68
2024-01-31T17:04:22.510Z,1.56
2024-01-31T17:07:26.330Z,1.38
2024-01-31T17:10:30.438Z,1.38
2024-01-31T17:13:34.389Z,1.33
2024-01-31T17:16:44.072Z,1.31
2024-01-31T17:19:49.756Z,1.30
2024-01-31T17:22:54.374Z,1.17
2024-01-31T17:25:57.964Z,1.06
2024-01-31T17:29:02.293Z,1.05
2024-01-31T17:32:07.014Z,1.09
2024-01-31T17:35:12.930Z,0.99
2024-01-31T17:38:16.640Z,0.96
2024-01-31T17:41:21.558Z,0.89
2024-01-31T17:44:25.495Z,0.69
2024-01-31T17:47:29.905Z,0.78
2024-01-31T17:50:35.531Z,0.66
2024-01-31T17:53:39.777Z,0.55
2024-01-31T17:56:46.698Z,0.63
2024-01-31T17:59:50.850Z,0.34
2024-01-31T18:02:54.941Z,0.40
2024-01-31T18:06:00.644Z,0.42
2024-01-31T18:09:07.639Z,0.15
2024-01-31T18:12:19.037Z,0.13
2024-01-31T18:15:29.741Z,0.16
2024-01-31T18:18:34.150Z,0.23
2024-01-31T18:21:40.748Z,0.19
2024-01-31T18:24:44.756Z,0.01
2024-01-31T18:27:48.455Z,0.08
2024-01-31T18:30:52.340Z,0.13
2024-01-31T18:33:57.636Z,0.02
2024-01-31T18:37:04.074Z,0.08
2024-01-31T18:40:09.738Z,-0.02
2024-01-31T18:43:14.180Z,-0.13
2024-01-31T18:46:18.253Z,-0.20
2024-01-31T18:49:22.819Z,-0.14
2024-01-31T18:52:28.319Z,-0.18
2024-01-31T18:55:32.692Z,-0.15
2024-01-31T18:58:36.647Z,-0.17
2024-01-31T19:01:40.792Z,-0.20
2024-01-31T19:04:51.134Z,-0.19
2024-01-31T19:08:01.484Z,-0.30
2024-01-31T19:11:05.475Z,-0.27
2024-01-31T19:14:19.211Z,-0.30
2024-01-31T19:17:27.932Z,-0.33
2024-01-31T19:20:34.598Z,-0.41
2024-01-31T19:23:39.853Z,-0.42
2024-01-31T19:26:44.322Z,-0.36
2024-01-31T19:29:48.048Z,-0.35
2024-01-31T19:32:53.223Z,-0.55
2024-01-31T19:35:57.015Z,-0.80
2024-01-31T19:39:02.555Z,-0.81
2024-01-31T19:42:06.697Z,-0.83
2024-01-31T19:45:11.704Z,-0.99
2024-01-31T19:48:15.891Z,-0.99
2024-01-31T19:51:20.365Z,-0.95
2024-01-31T19:54:26.009Z,-0.89
2024-01-31T19:57:30.945Z,-0.89
2024-01-31T20:00:34.890Z,-0.86
2024-01-31T20:03:40.601Z,-0.79
2024-01-31T20:06:44.615Z,-0.83
2024-01-31T20:09:50.205Z,-0.78
2024-01-31T20:12:54.236Z,-1.04
2024-01-31T20:15:58.522Z,-1.07
2024-01-31T20:19:04.235Z,-1.17
2024-01-31T20:22:08.712Z,-1.17
2024-01-31T20:25:13.795Z,-1.15
2024-01-31T20:28:17.946Z,-1.16
2024-01-31T20:31:21.741Z,-1.31
2024-01-31T20:34:26.281Z,-1.18
2024-01-31T20:37:30.061Z,-1.23
2024-01-31T20:40:35.683Z,-1.27
2024-01-31T20:43:39.506Z,-1.18
2024-01-31T20:46:44.629Z,-1.19
2024-01-31T20:49:50.151Z,-1.17
2024-01-31T20:52:54.193Z,-1.14
2024-01-31T20:56:00.238Z,-1.13
2024-01-31T20:59:05.150Z,-1.32
2024-01-31T21:02:08.839Z,-1.51
2024-01-31T21:05:13.441Z,-1.81
2024-01-31T21:08:17.698Z,-1.64
2024-01-31T21:11:23.584Z,-1.66
2024-01-31T21:14:28.602Z,-1.56
2024-01-31T21:17:32.750Z,-1.73
2024-01-31T21:20:36.780Z,-1.65
2024-01-31T21:23:41.069Z,-1.53
2024-01-31T21:26:46.549Z,-1.54
2024-01-31T21:29:52.856Z,-1.73
2024-01-31T21:32:56.736Z,-1.67
2024-01-31T21:36:01.115Z,-1.76
2024-01-31T21:39:05.351Z,-1.67
2024-01-31T21:42:11.522Z,-1.79
2024-01-31T21:45:15.468Z,-1.90
2024-01-31T21:48:19.908Z,-1.91
2024-01-31T21:51:23.951Z,-2.13
2024-01-31T21:54:27.992Z,-1.95
2024-01-31T21:57:33.565Z,-1.88
2024-01-31T22:00:37.668Z,-2.04
2024-01-31T22:03:50.173Z,-2.04
2024-01-31T22:07:04.122Z,-2.00
2024-01-31T22:10:08.526Z,-1.82
2024-01-31T22:13:14.196Z,-1.75
2024-01-31T22:16:18.082Z,-1.90
2024-01-31T22:19:22.537Z,-1.89
2024-01-31T22:22:26.384Z,-1.94
2024-01-31T22:25:30.632Z,-1.90
2024-01-31T22:28:35.702Z,-1.88
2024-01-31T22:31:44.244Z,-2.00
2024-01-31T22:34:48.120Z,-1.91
2024-01-31T22:37:52.381Z,-1.97
2024-01-31T22:40:59.742Z,-2.01
2024-01-31T22:44:07.881Z,-2.16
2024-01-31T22:47:11.614Z,-2.15
2024-01-31T22:50:16.550Z,-2.09
2024-01-31T22:53:20.318Z,-2.22
2024-01-31T22:56:24.432Z,-2.13
2024-01-31T22:59:29.630Z,-2.43
2024-01-31T23:02:34.559Z,-2.33
2024-01-31T23:05:38.449Z,-2.37
2024-01-31T23:08:42.565Z,-2.29
2024-01-31T23:11:46.741Z,-2.32
2024-01-31T23:14:52.347Z,-2.17
2024-01-31T23:17:56.275Z,-2.26
2024-01-31T23:21:01.898Z,-2.30
2024-01-31T23:24:06.337Z,-2.60
2024-01-31T23:27:14.519Z,-2.63
2024-01-31T23:30:19.783Z,-2.48
2024-01-31T23:33:23.926Z,-2.89
2024-01-31T23:36:29.802Z,-2.63
2024-01-31T23:39:34.040Z,-2.81
2024-01-31T23:42:37.929Z,-2.61
2024-01-31T23:45:43.354Z,-2.82
2024-01-31T23:48:47.607Z,-2.74
2024-01-31T23:51:51.723Z,-2.63
2024-01-31T23:54:55.505Z,-2.82
2024-01-31T23:57:59.649Z,-2.97
